sensor_id;sensor_type;location;lat;lon;timestamp;temperature;humidity
32877;DHT22;19226;51.600;8.034;2023-02-21T00:01:40;8.90;99.90
32877;DHT22;19226;51.600;8.034;2023-02-21T00:04:43;8.80;99.90
32877;DHT22;19226;51.600;8.034;2023-02-21T00:07:46;8.80;99.90
32877;DHT22;19226;51.600;8.034;2023-02-21T00:10:50;8.80;99.90
32877;DHT22;19226;51.600;8.034;2023-02-21T00:13:54;8.80;99.90
32877;DHT22;19226;51.600;8.034;2023-02-21T00:16:57;8.80;99.90
32877;DHT22;19226;51.600;8.034;2023-02-21T00:19:59;8.80;99.90
32877;DHT22;19226;51.600;8.034;2023-02-21T00:23:03;8.80;99.90
32877;DHT22;19226;51.600;8.034;2023-02-21T00:26:06;8.80;99.90
32877;DHT22;19226;51.600;8.034;2023-02-21T00:29:09;8.70;99.90
32877;DHT22;19226;51.600;8.034;2023-02-21T00:32:12;8.80;99.90
32877;DHT22;19226;51.600;8.034;2023-02-21T00:35:15;8.80;99.90
32877;DHT22;19226;51.600;8.034;2023-02-21T00:38:18;8.80;99.90
32877;DHT22;19226;51.600;8.034;2023-02-21T00:41:22;8.80;99.90
32877;DHT22;19226;51.600;8.034;2023-02-21T00:44:25;8.80;99.90
32877;DHT22;19226;51.600;8.034;2023-02-21T00:47:28;8.80;99.90
32877;DHT22;19226;51.600;8.034;2023-02-21T00:50:31;8.70;99.90
32877;DHT22;19226;51.600;8.034;2023-02-21T00:53:34;8.80;99.90
32877;DHT22;19226;51.600;8.034;2023-02-21T00:56:37;8.70;99.90
32877;DHT22;19226;51.600;8.034;2023-02-21T00:59:41;8.70;99.90
32877;DHT22;19226;51.600;8.034;2023-02-21T01:02:44;8.80;99.90
32877;DHT22;19226;51.600;8.034;2023-02-21T01:05:48;8.80;99.90
32877;DHT22;19226;51.600;8.034;2023-02-21T01:08:52;8.80;99.90
32877;DHT22;19226;51.600;8.034;2023-02-21T01:11:55;8.80;99.90
32877;DHT22;19226;51.600;8.034;2023-02-21T01:14:58;8.80;99.90
32877;DHT22;19226;51.600;8.034;2023-02-21T01:18:01;8.80;99.90
32877;DHT22;19226;51.600;8.034;2023-02-21T01:21:04;8.80;99.90
32877;DHT22;19226;51.600;8.034;2023-02-21T01:24:12;8.90;99.90
32877;DHT22;19226;51.600;8.034;2023-02-21T01:27:15;8.80;99.90
32877;DHT22;19226;51.600;8.034;2023-02-21T01:30:18;8.80;99.90
32877;DHT22;19226;51.600;8.034;2023-02-21T01:33:21;8.70;99.90
32877;DHT22;19226;51.600;8.034;2023-02-21T01:36:26;8.70;99.90
32877;DHT22;19226;51.600;8.034;2023-02-21T01:39:29;8.70;99.90
32877;DHT22;19226;51.600;8.034;2023-02-21T01:42:32;8.70;99.90
32877;DHT22;19226;51.600;8.034;2023-02-21T01:45:46;8.70;99.90
32877;DHT22;19226;51.600;8.034;2023-02-21T01:48:52;8.70;99.90
32877;DHT22;19226;51.600;8.034;2023-02-21T01:51:56;8.70;99.90
32877;DHT22;19226;51.600;8.034;2023-02-21T01:55:03;8.70;99.90
32877;DHT22;19226;51.600;8.034;2023-02-21T01:58:07;8.70;99.90
32877;DHT22;19226;51.600;8.034;2023-02-21T02:01:22;8.70;99.90
32877;DHT22;19226;51.600;8.034;2023-02-21T02:04:27;8.70;99.90
32877;DHT22;19226;51.600;8.034;2023-02-21T02:07:33;8.60;99.90
32877;DHT22;19226;51.600;8.034;2023-02-21T02:10:38;8.60;99.90
32877;DHT22;19226;51.600;8.034;2023-02-21T02:16:47;8.60;99.90
32877;DHT22;19226;51.600;8.034;2023-02-21T02:25:51;8.60;99.90
32877;DHT22;19226;51.600;8.034;2023-02-21T02:35:12;8.60;99.90
32877;DHT22;19226;51.600;8.034;2023-02-21T02:38:07;8.60;99.90
32877;DHT22;19226;51.600;8.034;2023-02-21T02:44:29;8.60;99.90
32877;DHT22;19226;51.600;8.034;2023-02-21T02:47:24;8.50;99.90
32877;DHT22;19226;51.600;8.034;2023-02-21T02:50:10;8.50;99.90
32877;DHT22;19226;51.600;8.034;2023-02-21T02:53:01;8.60;99.90
32877;DHT22;19226;51.600;8.034;2023-02-21T02:55:52;8.60;99.90
32877;DHT22;19226;51.600;8.034;2023-02-21T02:58:51;8.60;99.90
32877;DHT22;19226;51.600;8.034;2023-02-21T03:01:47;8.60;99.90
32877;DHT22;19226;51.600;8.034;2023-02-21T03:13:36;8.50;99.90
32877;DHT22;19226;51.600;8.034;2023-02-21T03:16:30;8.50;99.90
32877;DHT22;19226;51.600;8.034;2023-02-21T03:19:20;8.50;99.90
32877;DHT22;19226;51.600;8.034;2023-02-21T03:22:10;8.50;99.90
32877;DHT22;19226;51.600;8.034;2023-02-21T03:24:55;8.50;99.90
32877;DHT22;19226;51.600;8.034;2023-02-21T03:27:42;8.50;99.90
32877;DHT22;19226;51.600;8.034;2023-02-21T03:30:43;8.50;99.90
32877;DHT22;19226;51.600;8.034;2023-02-21T03:33:29;8.50;99.90
32877;DHT22;19226;51.600;8.034;2023-02-21T03:36:14;8.50;99.90
32877;DHT22;19226;51.600;8.034;2023-02-21T03:38:59;8.50;99.90
32877;DHT22;19226;51.600;8.034;2023-02-21T03:41:44;8.50;99.90
32877;DHT22;19226;51.600;8.034;2023-02-21T03:44:29;8.50;99.90
32877;DHT22;19226;51.600;8.034;2023-02-21T03:47:13;8.50;99.90
32877;DHT22;19226;51.600;8.034;2023-02-21T03:49:58;8.50;99.90
32877;DHT22;19226;51.600;8.034;2023-02-21T03:52:43;8.50;99.90
32877;DHT22;19226;51.600;8.034;2023-02-21T03:55:27;8.50;99.90
32877;DHT22;19226;51.600;8.034;2023-02-21T03:58:13;8.50;99.90
32877;DHT22;19226;51.600;8.034;2023-02-21T04:00:58;8.60;99.90
32877;DHT22;19226;51.600;8.034;2023-02-21T04:03:43;8.60;99.90
32877;DHT22;19226;51.600;8.034;2023-02-21T04:06:27;8.50;99.90
32877;DHT22;19226;51.600;8.034;2023-02-21T04:09:13;8.60;99.90
32877;DHT22;19226;51.600;8.034;2023-02-21T04:11:59;8.50;99.90
32877;DHT22;19226;51.600;8.034;2023-02-21T04:14:45;8.60;99.90
32877;DHT22;19226;51.600;8.034;2023-02-21T04:17:30;8.60;99.90
32877;DHT22;19226;51.600;8.034;2023-02-21T04:20:16;8.60;99.90
32877;DHT22;19226;51.600;8.034;2023-02-21T04:23:06;8.50;99.90
32877;DHT22;19226;51.600;8.034;2023-02-21T04:25:51;8.50;99.90
32877;DHT22;19226;51.600;8.034;2023-02-21T04:28:43;8.50;99.90
32877;DHT22;19226;51.600;8.034;2023-02-21T04:31:28;8.50;99.90
32877;DHT22;19226;51.600;8.034;2023-02-21T04:34:13;8.60;99.90
32877;DHT22;19226;51.600;8.034;2023-02-21T04:37:00;8.50;99.90
32877;DHT22;19226;51.600;8.034;2023-02-21T04:39:45;8.50;99.90
32877;DHT22;19226;51.600;8.034;2023-02-21T04:42:29;8.50;99.90
32877;DHT22;19226;51.600;8.034;2023-02-21T04:45:14;8.60;99.90
32877;DHT22;19226;51.600;8.034;2023-02-21T04:47:59;8.60;99.90
32877;DHT22;19226;51.600;8.034;2023-02-21T04:50:43;8.50;99.90
32877;DHT22;19226;51.600;8.034;2023-02-21T04:53:28;8.50;99.90
32877;DHT22;19226;51.600;8.034;2023-02-21T04:56:12;8.50;99.90
32877;DHT22;19226;51.600;8.034;2023-02-21T04:58:57;8.60;99.90
32877;DHT22;19226;51.600;8.034;2023-02-21T05:01:41;8.50;99.90
32877;DHT22;19226;51.600;8.034;2023-02-21T05:04:26;8.60;99.90
32877;DHT22;19226;51.600;8.034;2023-02-21T05:07:11;8.60;99.90
32877;DHT22;19226;51.600;8.034;2023-02-21T05:09:55;8.50;99.90
32877;DHT22;19226;51.600;8.034;2023-02-21T05:12:40;8.50;99.90
32877;DHT22;19226;51.600;8.034;2023-02-21T05:15:24;8.50;99.90
32877;DHT22;19226;51.600;8.034;2023-02-21T05:18:09;8.60;99.90
32877;DHT22;19226;51.600;8.034;2023-02-21T05:20:53;8.60;99.90
32877;DHT22;19226;51.600;8.034;2023-02-21T05:23:39;8.60;99.90
32877;DHT22;19226;51.600;8.034;2023-02-21T05:26:26;8.60;99.90
32877;DHT22;19226;51.600;8.034;2023-02-21T05:29:12;8.60;99.90
32877;DHT22;19226;51.600;8.034;2023-02-21T05:31:57;8.60;99.90
32877;DHT22;19226;51.600;8.034;2023-02-21T05:34:42;8.60;99.90
32877;DHT22;19226;51.600;8.034;2023-02-21T05:37:27;8.60;99.90
32877;DHT22;19226;51.600;8.034;2023-02-21T05:40:12;8.60;99.90
32877;DHT22;19226;51.600;8.034;2023-02-21T05:42:58;8.60;99.90
32877;DHT22;19226;51.600;8.034;2023-02-21T05:45:42;8.60;99.90
32877;DHT22;19226;51.600;8.034;2023-02-21T05:48:27;8.60;99.90
32877;DHT22;19226;51.600;8.034;2023-02-21T05:51:11;8.60;99.90
32877;DHT22;19226;51.600;8.034;2023-02-21T05:53:56;8.60;99.90
32877;DHT22;19226;51.600;8.034;2023-02-21T05:56:42;8.60;99.90
32877;DHT22;19226;51.600;8.034;2023-02-21T05:59:26;8.60;99.90
32877;DHT22;19226;51.600;8.034;2023-02-21T06:02:11;8.60;99.90
32877;DHT22;19226;51.600;8.034;2023-02-21T06:04:55;8.60;99.90
32877;DHT22;19226;51.600;8.034;2023-02-21T06:07:40;8.60;99.90
32877;DHT22;19226;51.600;8.034;2023-02-21T06:10:24;8.60;99.90
32877;DHT22;19226;51.600;8.034;2023-02-21T06:13:09;8.60;99.90
32877;DHT22;19226;51.600;8.034;2023-02-21T06:15:54;8.60;99.90
32877;DHT22;19226;51.600;8.034;2023-02-21T06:18:38;8.60;99.90
32877;DHT22;19226;51.600;8.034;2023-02-21T06:21:23;8.50;99.90
32877;DHT22;19226;51.600;8.034;2023-02-21T06:24:09;8.60;99.90
32877;DHT22;19226;51.600;8.034;2023-02-21T06:26:53;8.60;99.90
32877;DHT22;19226;51.600;8.034;2023-02-21T06:29:38;8.50;99.90
32877;DHT22;19226;51.600;8.034;2023-02-21T06:32:22;8.60;99.90
32877;DHT22;19226;51.600;8.034;2023-02-21T06:35:07;8.60;99.90
32877;DHT22;19226;51.600;8.034;2023-02-21T06:37:52;8.60;99.90
32877;DHT22;19226;51.600;8.034;2023-02-21T06:40:36;8.50;99.90
32877;DHT22;19226;51.600;8.034;2023-02-21T06:43:21;8.50;99.90
32877;DHT22;19226;51.600;8.034;2023-02-21T06:46:06;8.50;99.90
32877;DHT22;19226;51.600;8.034;2023-02-21T06:48:51;8.50;99.90
32877;DHT22;19226;51.600;8.034;2023-02-21T06:51:38;8.60;99.90
32877;DHT22;19226;51.600;8.034;2023-02-21T06:54:23;8.60;99.90
32877;DHT22;19226;51.600;8.034;2023-02-21T06:57:08;8.60;99.90
32877;DHT22;19226;51.600;8.034;2023-02-21T06:59:52;8.60;99.90
32877;DHT22;19226;51.600;8.034;2023-02-21T07:02:37;8.50;99.90
32877;DHT22;19226;51.600;8.034;2023-02-21T07:05:22;8.50;99.90
32877;DHT22;19226;51.600;8.034;2023-02-21T07:08:06;8.50;99.90
32877;DHT22;19226;51.600;8.034;2023-02-21T07:10:51;8.50;99.90
32877;DHT22;19226;51.600;8.034;2023-02-21T07:13:36;8.50;99.90
32877;DHT22;19226;51.600;8.034;2023-02-21T07:16:21;8.60;99.90
32877;DHT22;19226;51.600;8.034;2023-02-21T07:19:06;8.60;99.90
32877;DHT22;19226;51.600;8.034;2023-02-21T07:21:50;8.60;99.90
32877;DHT22;19226;51.600;8.034;2023-02-21T07:24:35;8.60;99.90
32877;DHT22;19226;51.600;8.034;2023-02-21T07:27:20;8.60;99.90
32877;DHT22;19226;51.600;8.034;2023-02-21T07:30:04;8.60;99.90
32877;DHT22;19226;51.600;8.034;2023-02-21T07:32:50;8.60;99.90
32877;DHT22;19226;51.600;8.034;2023-02-21T07:35:35;8.60;99.90
32877;DHT22;19226;51.600;8.034;2023-02-21T07:38:27;8.50;99.90
32877;DHT22;19226;51.600;8.034;2023-02-21T07:41:13;8.50;99.90
32877;DHT22;19226;51.600;8.034;2023-02-21T07:43:57;8.50;99.90
32877;DHT22;19226;51.600;8.034;2023-02-21T07:46:42;8.50;99.90
32877;DHT22;19226;51.600;8.034;2023-02-21T07:49:29;8.50;99.90
32877;DHT22;19226;51.600;8.034;2023-02-21T07:52:14;8.50;99.90
32877;DHT22;19226;51.600;8.034;2023-02-21T07:54:58;8.50;99.90
32877;DHT22;19226;51.600;8.034;2023-02-21T07:57:43;8.50;99.90
32877;DHT22;19226;51.600;8.034;2023-02-21T08:00:28;8.60;99.90
32877;DHT22;19226;51.600;8.034;2023-02-21T08:03:13;8.60;99.90
32877;DHT22;19226;51.600;8.034;2023-02-21T08:05:58;8.60;99.90
32877;DHT22;19226;51.600;8.034;2023-02-21T08:08:46;8.60;99.90
32877;DHT22;19226;51.600;8.034;2023-02-21T08:11:30;8.70;99.90
32877;DHT22;19226;51.600;8.034;2023-02-21T08:14:15;8.60;99.90
32877;DHT22;19226;51.600;8.034;2023-02-21T08:17:00;8.60;99.90
32877;DHT22;19226;51.600;8.034;2023-02-21T08:19:44;8.60;99.90
32877;DHT22;19226;51.600;8.034;2023-02-21T08:22:29;8.60;99.90
32877;DHT22;19226;51.600;8.034;2023-02-21T08:25:14;8.60;99.90
32877;DHT22;19226;51.600;8.034;2023-02-21T08:27:59;8.70;99.90
32877;DHT22;19226;51.600;8.034;2023-02-21T08:30:43;8.70;99.90
32877;DHT22;19226;51.600;8.034;2023-02-21T08:33:28;8.80;99.90
32877;DHT22;19226;51.600;8.034;2023-02-21T08:36:13;8.80;99.90
32877;DHT22;19226;51.600;8.034;2023-02-21T08:38:57;8.80;99.90
32877;DHT22;19226;51.600;8.034;2023-02-21T08:41:44;8.80;99.90
32877;DHT22;19226;51.600;8.034;2023-02-21T08:44:28;8.80;99.90
32877;DHT22;19226;51.600;8.034;2023-02-21T08:47:14;8.90;99.90
32877;DHT22;19226;51.600;8.034;2023-02-21T08:49:59;8.90;99.90
32877;DHT22;19226;51.600;8.034;2023-02-21T08:52:47;8.90;99.90
32877;DHT22;19226;51.600;8.034;2023-02-21T08:55:31;8.90;99.90
32877;DHT22;19226;51.600;8.034;2023-02-21T08:58:16;8.90;99.90
32877;DHT22;19226;51.600;8.034;2023-02-21T09:01:01;9.00;99.90
32877;DHT22;19226;51.600;8.034;2023-02-21T09:03:45;9.00;99.90
32877;DHT22;19226;51.600;8.034;2023-02-21T09:06:30;9.00;99.90
32877;DHT22;19226;51.600;8.034;2023-02-21T09:09:15;9.00;99.90
32877;DHT22;19226;51.600;8.034;2023-02-21T09:11:59;9.00;99.90
32877;DHT22;19226;51.600;8.034;2023-02-21T09:14:46;9.00;99.90
32877;DHT22;19226;51.600;8.034;2023-02-21T09:17:31;9.10;99.90
32877;DHT22;19226;51.600;8.034;2023-02-21T09:20:22;9.10;99.90
32877;DHT22;19226;51.600;8.034;2023-02-21T09:23:08;9.10;99.90
32877;DHT22;19226;51.600;8.034;2023-02-21T09:25:52;9.10;99.90
32877;DHT22;19226;51.600;8.034;2023-02-21T09:28:37;9.10;99.90
32877;DHT22;19226;51.600;8.034;2023-02-21T09:31:26;9.10;99.90
32877;DHT22;19226;51.600;8.034;2023-02-21T09:34:11;9.20;99.90
32877;DHT22;19226;51.600;8.034;2023-02-21T09:36:55;9.20;99.90
32877;DHT22;19226;51.600;8.034;2023-02-21T09:39:40;9.20;99.90
32877;DHT22;19226;51.600;8.034;2023-02-21T09:42:29;9.20;99.90
32877;DHT22;19226;51.600;8.034;2023-02-21T09:45:15;9.20;99.90
32877;DHT22;19226;51.600;8.034;2023-02-21T09:48:10;9.20;99.90
32877;DHT22;19226;51.600;8.034;2023-02-21T09:50:58;9.20;99.90
32877;DHT22;19226;51.600;8.034;2023-02-21T09:53:47;9.20;99.90
32877;DHT22;19226;51.600;8.034;2023-02-21T09:56:38;9.30;99.90
32877;DHT22;19226;51.600;8.034;2023-02-21T09:59:23;9.30;99.90
32877;DHT22;19226;51.600;8.034;2023-02-21T10:02:29;9.30;99.90
32877;DHT22;19226;51.600;8.034;2023-02-21T10:08:22;9.20;99.90
32877;DHT22;19226;51.600;8.034;2023-02-21T10:17:51;9.20;99.90
32877;DHT22;19226;51.600;8.034;2023-02-21T10:20:42;9.30;99.90
32877;DHT22;19226;51.600;8.034;2023-02-21T10:23:34;9.20;99.90
32877;DHT22;19226;51.600;8.034;2023-02-21T10:26:24;9.20;99.90
32877;DHT22;19226;51.600;8.034;2023-02-21T10:29:43;9.20;99.90
32877;DHT22;19226;51.600;8.034;2023-02-21T10:32:55;9.20;99.90
32877;DHT22;19226;51.600;8.034;2023-02-21T10:35:59;9.30;99.90
32877;DHT22;19226;51.600;8.034;2023-02-21T10:39:20;9.30;99.90
32877;DHT22;19226;51.600;8.034;2023-02-21T10:42:10;9.40;99.90
32877;DHT22;19226;51.600;8.034;2023-02-21T10:44:56;9.40;99.90
32877;DHT22;19226;51.600;8.034;2023-02-21T10:47:59;9.40;99.90
32877;DHT22;19226;51.600;8.034;2023-02-21T10:50:50;9.40;99.90
32877;DHT22;19226;51.600;8.034;2023-02-21T10:53:37;9.50;99.90
32877;DHT22;19226;51.600;8.034;2023-02-21T10:56:24;9.40;99.90
32877;DHT22;19226;51.600;8.034;2023-02-21T10:59:25;9.50;99.90
32877;DHT22;19226;51.600;8.034;2023-02-21T11:02:31;9.50;99.90
32877;DHT22;19226;51.600;8.034;2023-02-21T11:05:18;9.50;99.90
32877;DHT22;19226;51.600;8.034;2023-02-21T11:08:08;9.60;99.90
32877;DHT22;19226;51.600;8.034;2023-02-21T11:10:54;9.60;99.90
32877;DHT22;19226;51.600;8.034;2023-02-21T11:13:38;9.60;99.90
32877;DHT22;19226;51.600;8.034;2023-02-21T11:16:23;9.60;99.90
32877;DHT22;19226;51.600;8.034;2023-02-21T11:19:12;9.60;99.90
32877;DHT22;19226;51.600;8.034;2023-02-21T11:21:57;9.60;99.90
32877;DHT22;19226;51.600;8.034;2023-02-21T11:24:52;9.50;99.90
32877;DHT22;19226;51.600;8.034;2023-02-21T11:27:38;9.50;99.90
32877;DHT22;19226;51.600;8.034;2023-02-21T11:30:23;9.60;99.90
32877;DHT22;19226;51.600;8.034;2023-02-21T11:33:08;9.50;99.90
32877;DHT22;19226;51.600;8.034;2023-02-21T11:36:15;9.60;99.90
32877;DHT22;19226;51.600;8.034;2023-02-21T11:39:04;9.60;99.90
32877;DHT22;19226;51.600;8.034;2023-02-21T11:41:53;9.60;99.90
32877;DHT22;19226;51.600;8.034;2023-02-21T11:44:39;9.60;99.90
32877;DHT22;19226;51.600;8.034;2023-02-21T11:47:30;9.50;99.90
32877;DHT22;19226;51.600;8.034;2023-02-21T11:50:25;9.50;99.90
32877;DHT22;19226;51.600;8.034;2023-02-21T11:53:30;9.50;99.90
32877;DHT22;19226;51.600;8.034;2023-02-21T12:05:35;9.60;99.90
32877;DHT22;19226;51.600;8.034;2023-02-21T12:30:39;9.80;99.90
32877;DHT22;19226;51.600;8.034;2023-02-21T12:33:36;9.90;99.90
32877;DHT22;19226;51.600;8.034;2023-02-21T12:36:45;9.90;99.90
32877;DHT22;19226;51.600;8.034;2023-02-21T12:40:23;9.90;99.90
32877;DHT22;19226;51.600;8.034;2023-02-21T12:52:22;10.00;99.90
32877;DHT22;19226;51.600;8.034;2023-02-21T12:55:25;10.00;99.90
32877;DHT22;19226;51.600;8.034;2023-02-21T13:01:20;10.00;99.90
32877;DHT22;19226;51.600;8.034;2023-02-21T13:04:45;10.00;99.90
32877;DHT22;19226;51.600;8.034;2023-02-21T13:07:51;10.00;99.90
32877;DHT22;19226;51.600;8.034;2023-02-21T13:10:47;10.00;99.90
32877;DHT22;19226;51.600;8.034;2023-02-21T13:13:33;10.10;99.90
32877;DHT22;19226;51.600;8.034;2023-02-21T13:16:18;10.10;99.90
32877;DHT22;19226;51.600;8.034;2023-02-21T13:19:06;10.20;99.90
32877;DHT22;19226;51.600;8.034;2023-02-21T13:29:20;10.30;99.90
32877;DHT22;19226;51.600;8.034;2023-02-21T13:32:09;10.30;99.90
32877;DHT22;19226;51.600;8.034;2023-02-21T13:34:58;10.40;99.90
32877;DHT22;19226;51.600;8.034;2023-02-21T13:37:45;10.40;99.90
32877;DHT22;19226;51.600;8.034;2023-02-21T13:43:50;10.60;99.90
32877;DHT22;19226;51.600;8.034;2023-02-21T13:52:51;10.60;99.90
32877;DHT22;19226;51.600;8.034;2023-02-21T13:55:37;10.70;99.90
32877;DHT22;19226;51.600;8.034;2023-02-21T13:58:28;10.50;99.90
32877;DHT22;19226;51.600;8.034;2023-02-21T14:01:39;10.60;99.90
32877;DHT22;19226;51.600;8.034;2023-02-21T14:04:57;10.60;99.90
32877;DHT22;19226;51.600;8.034;2023-02-21T14:07:56;10.60;99.90
32877;DHT22;19226;51.600;8.034;2023-02-21T14:10:47;10.60;99.90
32877;DHT22;19226;51.600;8.034;2023-02-21T14:19:24;10.60;99.90
32877;DHT22;19226;51.600;8.034;2023-02-21T14:22:23;10.60;99.90
32877;DHT22;19226;51.600;8.034;2023-02-21T14:25:17;10.70;99.90
32877;DHT22;19226;51.600;8.034;2023-02-21T14:37:42;10.80;99.90
32877;DHT22;19226;51.600;8.034;2023-02-21T14:43:30;10.90;99.90
32877;DHT22;19226;51.600;8.034;2023-02-21T14:49:57;11.00;99.90
32877;DHT22;19226;51.600;8.034;2023-02-21T15:02:13;11.00;99.90
32877;DHT22;19226;51.600;8.034;2023-02-21T15:10:42;11.10;99.90
32877;DHT22;19226;51.600;8.034;2023-02-21T15:16:14;11.10;99.90
32877;DHT22;19226;51.600;8.034;2023-02-21T15:19:00;11.10;99.90
32877;DHT22;19226;51.600;8.034;2023-02-21T15:21:45;11.20;99.90
32877;DHT22;19226;51.600;8.034;2023-02-21T15:24:29;11.20;99.90
32877;DHT22;19226;51.600;8.034;2023-02-21T15:27:15;11.20;99.90
32877;DHT22;19226;51.600;8.034;2023-02-21T15:30:21;11.10;99.90
32877;DHT22;19226;51.600;8.034;2023-02-21T15:33:18;11.10;99.90
32877;DHT22;19226;51.600;8.034;2023-02-21T15:36:07;11.10;99.90
32877;DHT22;19226;51.600;8.034;2023-02-21T15:38:55;11.10;99.90
32877;DHT22;19226;51.600;8.034;2023-02-21T15:41:44;11.20;99.90
32877;DHT22;19226;51.600;8.034;2023-02-21T15:44:43;11.10;99.90
32877;DHT22;19226;51.600;8.034;2023-02-21T15:47:30;11.10;99.90
32877;DHT22;19226;51.600;8.034;2023-02-21T15:50:31;11.10;99.90
32877;DHT22;19226;51.600;8.034;2023-02-21T15:53:22;11.10;99.90
32877;DHT22;19226;51.600;8.034;2023-02-21T15:56:22;11.10;99.90
32877;DHT22;19226;51.600;8.034;2023-02-21T15:59:08;11.10;99.90
32877;DHT22;19226;51.600;8.034;2023-02-21T16:02:30;11.10;99.90
32877;DHT22;19226;51.600;8.034;2023-02-21T16:05:41;11.10;99.90
32877;DHT22;19226;51.600;8.034;2023-02-21T16:08:25;11.10;99.90
32877;DHT22;19226;51.600;8.034;2023-02-21T16:11:10;11.10;99.90
32877;DHT22;19226;51.600;8.034;2023-02-21T16:13:55;11.10;99.90
32877;DHT22;19226;51.600;8.034;2023-02-21T16:16:39;11.10;99.90
32877;DHT22;19226;51.600;8.034;2023-02-21T16:19:30;11.10;99.90
32877;DHT22;19226;51.600;8.034;2023-02-21T16:22:25;11.10;99.90
32877;DHT22;19226;51.600;8.034;2023-02-21T16:27:56;11.10;99.90
32877;DHT22;19226;51.600;8.034;2023-02-21T16:30:42;11.10;99.90
32877;DHT22;19226;51.600;8.034;2023-02-21T16:33:27;11.10;99.90
32877;DHT22;19226;51.600;8.034;2023-02-21T16:36:22;11.20;99.90
32877;DHT22;19226;51.600;8.034;2023-02-21T16:39:08;11.10;99.90
32877;DHT22;19226;51.600;8.034;2023-02-21T16:41:53;11.10;99.90
32877;DHT22;19226;51.600;8.034;2023-02-21T16:44:38;11.10;99.90
32877;DHT22;19226;51.600;8.034;2023-02-21T16:47:23;11.10;99.90
32877;DHT22;19226;51.600;8.034;2023-02-21T16:50:15;11.10;99.90
32877;DHT22;19226;51.600;8.034;2023-02-21T16:53:00;11.00;99.90
32877;DHT22;19226;51.600;8.034;2023-02-21T16:55:45;11.00;99.90
32877;DHT22;19226;51.600;8.034;2023-02-21T16:58:33;11.00;99.90
32877;DHT22;19226;51.600;8.034;2023-02-21T17:01:27;10.90;99.90
32877;DHT22;19226;51.600;8.034;2023-02-21T17:04:23;10.90;99.90
32877;DHT22;19226;51.600;8.034;2023-02-21T17:07:10;10.80;99.90
32877;DHT22;19226;51.600;8.034;2023-02-21T17:09:55;10.80;99.90
32877;DHT22;19226;51.600;8.034;2023-02-21T17:12:39;10.70;99.90
32877;DHT22;19226;51.600;8.034;2023-02-21T17:15:24;10.70;99.90
32877;DHT22;19226;51.600;8.034;2023-02-21T17:18:10;10.70;99.90
32877;DHT22;19226;51.600;8.034;2023-02-21T17:20:55;10.60;99.90
32877;DHT22;19226;51.600;8.034;2023-02-21T17:23:40;10.70;99.90
32877;DHT22;19226;51.600;8.034;2023-02-21T17:26:24;10.70;99.90
32877;DHT22;19226;51.600;8.034;2023-02-21T17:29:10;10.60;99.90
32877;DHT22;19226;51.600;8.034;2023-02-21T17:31:55;10.60;99.90
32877;DHT22;19226;51.600;8.034;2023-02-21T17:34:39;10.60;99.90
32877;DHT22;19226;51.600;8.034;2023-02-21T17:37:23;10.60;99.90
32877;DHT22;19226;51.600;8.034;2023-02-21T17:40:09;10.60;99.90
32877;DHT22;19226;51.600;8.034;2023-02-21T17:42:54;10.60;99.90
32877;DHT22;19226;51.600;8.034;2023-02-21T17:45:39;10.60;99.90
32877;DHT22;19226;51.600;8.034;2023-02-21T17:48:23;10.60;99.90
32877;DHT22;19226;51.600;8.034;2023-02-21T17:51:08;10.60;99.90
32877;DHT22;19226;51.600;8.034;2023-02-21T17:53:53;10.50;99.90
32877;DHT22;19226;51.600;8.034;2023-02-21T17:56:37;10.50;99.90
32877;DHT22;19226;51.600;8.034;2023-02-21T17:59:22;10.50;99.90
32877;DHT22;19226;51.600;8.034;2023-02-21T18:02:06;10.50;99.90
32877;DHT22;19226;51.600;8.034;2023-02-21T18:04:51;10.50;99.90
32877;DHT22;19226;51.600;8.034;2023-02-21T18:07:35;10.50;99.90
32877;DHT22;19226;51.600;8.034;2023-02-21T18:10:22;10.40;99.90
32877;DHT22;19226;51.600;8.034;2023-02-21T18:13:07;10.40;99.90
32877;DHT22;19226;51.600;8.034;2023-02-21T18:15:51;10.40;99.90
32877;DHT22;19226;51.600;8.034;2023-02-21T18:18:36;10.40;99.90
32877;DHT22;19226;51.600;8.034;2023-02-21T18:21:20;10.40;99.90
32877;DHT22;19226;51.600;8.034;2023-02-21T18:24:10;10.40;99.90
32877;DHT22;19226;51.600;8.034;2023-02-21T18:26:55;10.40;99.90
32877;DHT22;19226;51.600;8.034;2023-02-21T18:29:40;10.40;99.90
32877;DHT22;19226;51.600;8.034;2023-02-21T18:32:25;10.40;99.90
32877;DHT22;19226;51.600;8.034;2023-02-21T18:35:09;10.40;99.90
32877;DHT22;19226;51.600;8.034;2023-02-21T18:37:53;10.40;99.90
32877;DHT22;19226;51.600;8.034;2023-02-21T18:40:43;10.30;99.90
32877;DHT22;19226;51.600;8.034;2023-02-21T18:43:29;10.30;99.90
32877;DHT22;19226;51.600;8.034;2023-02-21T18:46:16;10.30;99.90
32877;DHT22;19226;51.600;8.034;2023-02-21T18:49:01;10.30;99.90
32877;DHT22;19226;51.600;8.034;2023-02-21T18:51:46;10.30;99.90
32877;DHT22;19226;51.600;8.034;2023-02-21T18:54:31;10.30;99.90
32877;DHT22;19226;51.600;8.034;2023-02-21T18:57:17;10.30;99.90
32877;DHT22;19226;51.600;8.034;2023-02-21T19:00:04;10.20;99.90
32877;DHT22;19226;51.600;8.034;2023-02-21T19:02:49;10.20;99.90
32877;DHT22;19226;51.600;8.034;2023-02-21T19:05:34;10.20;99.90
32877;DHT22;19226;51.600;8.034;2023-02-21T19:08:19;10.20;99.90
32877;DHT22;19226;51.600;8.034;2023-02-21T19:11:04;10.10;99.90
32877;DHT22;19226;51.600;8.034;2023-02-21T19:13:49;10.10;99.90
32877;DHT22;19226;51.600;8.034;2023-02-21T19:16:33;10.00;99.90
32877;DHT22;19226;51.600;8.034;2023-02-21T19:19:18;10.00;99.90
32877;DHT22;19226;51.600;8.034;2023-02-21T19:22:04;10.00;99.90
32877;DHT22;19226;51.600;8.034;2023-02-21T19:24:48;10.00;99.90
32877;DHT22;19226;51.600;8.034;2023-02-21T19:27:33;10.00;99.90
32877;DHT22;19226;51.600;8.034;2023-02-21T19:30:18;10.00;99.90
32877;DHT22;19226;51.600;8.034;2023-02-21T19:33:05;10.00;99.90
32877;DHT22;19226;51.600;8.034;2023-02-21T19:35:50;9.90;99.90
32877;DHT22;19226;51.600;8.034;2023-02-21T19:38:34;9.90;99.90
32877;DHT22;19226;51.600;8.034;2023-02-21T19:41:20;9.90;99.90
32877;DHT22;19226;51.600;8.034;2023-02-21T19:44:05;9.90;99.90
32877;DHT22;19226;51.600;8.034;2023-02-21T19:46:50;9.90;99.90
32877;DHT22;19226;51.600;8.034;2023-02-21T19:49:34;9.90;99.90
32877;DHT22;19226;51.600;8.034;2023-02-21T19:52:19;9.90;99.90
32877;DHT22;19226;51.600;8.034;2023-02-21T19:55:04;9.90;99.90
32877;DHT22;19226;51.600;8.034;2023-02-21T19:57:49;9.90;99.90
32877;DHT22;19226;51.600;8.034;2023-02-21T20:00:34;9.90;99.90
32877;DHT22;19226;51.600;8.034;2023-02-21T20:03:19;9.90;99.90
32877;DHT22;19226;51.600;8.034;2023-02-21T20:06:04;9.80;99.90
32877;DHT22;19226;51.600;8.034;2023-02-21T20:08:48;9.80;99.90
32877;DHT22;19226;51.600;8.034;2023-02-21T20:11:33;9.70;99.90
32877;DHT22;19226;51.600;8.034;2023-02-21T20:14:18;9.70;99.90
32877;DHT22;19226;51.600;8.034;2023-02-21T20:17:06;9.70;99.90
32877;DHT22;19226;51.600;8.034;2023-02-21T20:19:50;9.70;99.90
32877;DHT22;19226;51.600;8.034;2023-02-21T20:22:35;9.70;99.90
32877;DHT22;19226;51.600;8.034;2023-02-21T20:25:20;9.70;99.90
32877;DHT22;19226;51.600;8.034;2023-02-21T20:28:05;9.60;99.90